createdAt,value
2022-10-21T00:01:30.304Z,10.23
2022-10-21T00:03:58.915Z,10.40
2022-10-21T00:06:27.446Z,10.25
2022-10-21T00:08:57.483Z,7.30
2022-10-21T00:11:26.107Z,12.30
2022-10-21T00:13:54.685Z,9.00
2022-10-21T00:16:23.294Z,10.30
2022-10-21T00:18:51.895Z,9.80
2022-10-21T00:21:23.060Z,5.85
2022-10-21T00:23:51.850Z,12.70
2022-10-21T00:26:22.223Z,7.60
2022-10-21T00:28:50.988Z,9.20
2022-10-21T00:31:19.616Z,13.23
2022-10-21T00:33:48.191Z,8.97
2022-10-21T00:36:17.172Z,8.55
2022-10-21T00:38:48.581Z,11.50
2022-10-21T00:41:21.230Z,9.93
2022-10-21T00:44:02.762Z,9.95
2022-10-21T00:46:45.691Z,8.17
2022-10-21T00:49:22.902Z,7.93
2022-10-21T00:51:57.499Z,9.40
2022-10-21T00:54:28.001Z,11.88
2022-10-21T00:56:59.316Z,11.33
2022-10-21T00:59:34.886Z,9.40
2022-10-21T01:02:04.084Z,7.50
2022-10-21T01:04:32.633Z,7.63
2022-10-21T01:07:03.791Z,8.30
2022-10-21T01:09:32.679Z,8.50
2022-10-21T01:12:06.473Z,9.20
2022-10-21T01:14:55.152Z,8.73
2022-10-21T01:17:47.671Z,12.87
2022-10-21T01:21:07.444Z,8.80
2022-10-21T01:24:23.464Z,11.07
2022-10-21T01:27:32.094Z,9.53
2022-10-21T01:30:43.996Z,10.50
2022-10-21T01:33:39.165Z,13.47
2022-10-21T01:36:32.083Z,12.10
2022-10-21T01:39:20.014Z,8.20
2022-10-21T01:42:00.877Z,9.67
2022-10-21T01:44:38.441Z,12.70
2022-10-21T01:47:17.593Z,11.20
2022-10-21T01:49:54.114Z,8.40
2022-10-21T01:52:23.557Z,10.63
2022-10-21T01:54:59.565Z,8.93
2022-10-21T01:57:36.782Z,8.63
2022-10-21T02:00:07.544Z,8.80
2022-10-21T02:02:47.618Z,8.37
2022-10-21T02:05:22.048Z,7.70
2022-10-21T02:07:51.595Z,12.25
2022-10-21T02:10:21.525Z,13.27
2022-10-21T02:12:54.709Z,10.67
2022-10-21T02:15:26.862Z,9.60
2022-10-21T02:18:04.204Z,13.43
2022-10-21T02:20:39.093Z,10.30
2022-10-21T02:23:13.529Z,10.10
2022-10-21T02:25:49.147Z,8.50
2022-10-21T02:28:19.193Z,10.07
2022-10-21T02:31:04.298Z,10.13
2022-10-21T02:33:52.023Z,15.45
2022-10-21T02:36:37.875Z,12.07
2022-10-21T02:39:16.543Z,9.13
2022-10-21T02:41:49.438Z,10.83
2022-10-21T02:44:18.802Z,17.05
2022-10-21T02:46:49.697Z,8.15
2022-10-21T02:49:19.923Z,11.00
2022-10-21T02:51:48.857Z,14.10
2022-10-21T02:54:17.585Z,8.47
2022-10-21T02:56:46.368Z,9.73
2022-10-21T02:59:15.141Z,10.13
2022-10-21T03:01:43.989Z,12.27
2022-10-21T03:04:12.763Z,10.95
2022-10-21T03:06:42.930Z,8.98
2022-10-21T03:09:11.887Z,11.97
2022-10-21T03:11:40.633Z,11.90
2022-10-21T03:14:09.387Z,11.90
2022-10-21T03:16:38.186Z,17.75
2022-10-21T03:19:06.938Z,10.23
2022-10-21T03:21:35.728Z,9.50
2022-10-21T03:24:11.017Z,14.77
2022-10-21T03:26:48.526Z,10.10
2022-10-21T03:29:17.445Z,8.47
2022-10-21T03:31:46.257Z,9.77
2022-10-21T03:34:15.007Z,20.70
2022-10-21T03:36:43.722Z,11.13
2022-10-21T03:39:14.326Z,8.57
2022-10-21T03:41:43.128Z,13.40
2022-10-21T03:44:12.012Z,12.80
2022-10-21T03:46:40.810Z,11.27
2022-10-21T03:49:18.276Z,12.53
2022-10-21T03:51:50.199Z,8.93
2022-10-21T03:54:20.737Z,10.03
2022-10-21T03:56:49.710Z,11.53
2022-10-21T03:59:18.925Z,14.20
2022-10-21T04:01:47.737Z,14.77
2022-10-21T04:04:16.610Z,10.10
2022-10-21T04:06:45.345Z,14.70
2022-10-21T04:09:14.167Z,9.00
2022-10-21T04:11:44.488Z,12.30
2022-10-21T04:14:15.397Z,10.67
2022-10-21T04:16:46.134Z,9.40
2022-10-21T04:19:20.558Z,10.23
2022-10-21T04:21:49.441Z,11.90
2022-10-21T04:24:18.434Z,12.67
2022-10-21T04:26:48.609Z,12.30
2022-10-21T04:29:17.323Z,11.67
2022-10-21T04:31:46.394Z,13.37
2022-10-21T04:34:15.849Z,10.50
2022-10-21T04:36:44.833Z,13.40
2022-10-21T04:39:13.743Z,14.07
2022-10-21T04:41:42.513Z,12.70
2022-10-21T04:44:13.044Z,11.15
2022-10-21T04:46:41.853Z,11.90
2022-10-21T04:49:10.572Z,9.80
2022-10-21T04:51:39.436Z,13.37
2022-10-21T04:54:08.115Z,14.77
2022-10-21T04:56:36.962Z,14.80
2022-10-21T04:59:05.693Z,12.20
2022-10-21T05:01:35.973Z,18.10
2022-10-21T05:04:04.983Z,17.07
2022-10-21T05:06:33.930Z,12.60
2022-10-21T05:09:02.736Z,10.17
2022-10-21T05:11:31.643Z,9.63
2022-10-21T05:14:00.440Z,16.67
2022-10-21T05:16:29.329Z,10.93
2022-10-21T05:19:00.646Z,17.20
2022-10-21T05:21:29.501Z,11.73
2022-10-21T05:23:58.444Z,11.10
2022-10-21T05:26:29.012Z,13.80
2022-10-21T05:28:58.042Z,11.70
2022-10-21T05:31:27.620Z,16.00
2022-10-21T05:33:58.642Z,12.00
2022-10-21T05:36:27.712Z,14.73
2022-10-21T05:38:56.458Z,11.97
2022-10-21T05:41:25.294Z,11.77
2022-10-21T05:43:53.985Z,15.07
2022-10-21T05:46:23.503Z,21.73
2022-10-21T05:48:52.257Z,13.53
2022-10-21T05:51:26.510Z,15.83
2022-10-21T05:53:55.509Z,11.90
2022-10-21T05:56:24.406Z,11.50
2022-10-21T05:58:53.304Z,11.47
2022-10-21T06:01:22.155Z,10.77
2022-10-21T06:03:50.985Z,11.17
2022-10-21T06:06:21.252Z,16.40
2022-10-21T06:08:50.103Z,13.93
2022-10-21T06:11:21.826Z,14.60
2022-10-21T06:13:50.761Z,12.30
2022-10-21T06:16:19.773Z,12.67
2022-10-21T06:18:48.597Z,12.67
2022-10-21T06:21:17.452Z,11.03
2022-10-21T06:23:47.854Z,16.20
2022-10-21T06:26:17.990Z,11.17
2022-10-21T06:28:46.795Z,11.40
2022-10-21T06:31:21.803Z,14.90
2022-10-21T06:33:50.935Z,14.07
2022-10-21T06:36:19.701Z,12.30
2022-10-21T06:38:49.978Z,11.93
2022-10-21T06:41:19.067Z,10.80
2022-10-21T06:43:47.873Z,15.53
2022-10-21T06:46:17.827Z,15.10
2022-10-21T06:48:46.567Z,21.97
2022-10-21T06:51:20.497Z,12.20
2022-10-21T06:53:55.978Z,12.10
2022-10-21T06:56:26.586Z,11.00
2022-10-21T06:58:58.791Z,11.23
2022-10-21T07:01:48.158Z,14.83
2022-10-21T07:04:21.973Z,14.57
2022-10-21T07:06:50.825Z,15.27
2022-10-21T07:09:21.166Z,14.33
2022-10-21T07:11:50.138Z,18.53
2022-10-21T07:14:19.196Z,12.00
2022-10-21T07:16:48.410Z,14.57
2022-10-21T07:19:17.276Z,13.10
2022-10-21T07:21:46.312Z,13.80
2022-10-21T07:24:18.718Z,18.10
2022-10-21T07:26:50.214Z,12.63
2022-10-21T07:29:20.094Z,15.13
2022-10-21T07:31:49.039Z,13.50
2022-10-21T07:34:19.015Z,13.80
2022-10-21T07:36:52.702Z,15.60
2022-10-21T07:39:24.396Z,13.40
2022-10-21T07:41:56.737Z,12.23
2022-10-21T07:44:27.450Z,15.13
2022-10-21T07:46:57.107Z,9.83
2022-10-21T07:49:26.550Z,12.73
2022-10-21T07:51:55.567Z,11.53
2022-10-21T07:54:24.589Z,13.93
2022-10-21T07:56:54.920Z,14.90
2022-10-21T07:59:24.592Z,13.77
2022-10-21T08:01:54.143Z,14.10
2022-10-21T08:04:29.720Z,14.33
2022-10-21T08:06:59.183Z,13.10
2022-10-21T08:09:28.484Z,15.47
2022-10-21T08:11:59.064Z,16.80
2022-10-21T08:14:28.044Z,13.73
2022-10-21T08:16:57.412Z,11.80
2022-10-21T08:19:29.784Z,15.77
2022-10-21T08:22:00.955Z,17.80
2022-10-21T08:24:30.026Z,11.77
2022-10-21T08:27:00.471Z,9.27
2022-10-21T08:29:29.636Z,13.03
2022-10-21T08:31:58.756Z,14.73
2022-10-21T08:34:27.740Z,10.57
2022-10-21T08:36:56.828Z,13.70
2022-10-21T08:39:26.143Z,11.73
2022-10-21T08:42:09.509Z,15.10
2022-10-21T08:44:51.494Z,11.97
2022-10-21T08:47:26.553Z,18.47
2022-10-21T08:50:01.988Z,12.63
2022-10-21T08:52:41.249Z,13.50
2022-10-21T08:55:15.752Z,11.70
2022-10-21T08:57:46.952Z,10.67
2022-10-21T09:00:21.641Z,11.70
2022-10-21T09:03:08.838Z,15.63
2022-10-21T09:05:53.559Z,16.07
2022-10-21T09:08:28.225Z,14.10
2022-10-21T09:11:02.895Z,9.90
2022-10-21T09:13:56.788Z,10.80
2022-10-21T09:16:37.239Z,20.00
2022-10-21T09:19:15.206Z,11.80
2022-10-21T09:22:10.475Z,14.80
2022-10-21T09:24:53.468Z,10.40
2022-10-21T09:27:31.995Z,14.10
2022-10-21T09:30:15.508Z,12.70
2022-10-21T09:32:49.887Z,15.70
2022-10-21T09:35:26.049Z,11.67
2022-10-21T09:37:59.772Z,13.30
2022-10-21T09:40:30.452Z,12.87
2022-10-21T09:43:01.530Z,14.83
2022-10-21T09:45:35.520Z,12.63
2022-10-21T09:48:17.777Z,13.47
2022-10-21T09:50:48.504Z,13.93
2022-10-21T09:53:26.351Z,14.33
2022-10-21T09:56:03.848Z,15.43
2022-10-21T09:58:49.619Z,12.07
2022-10-21T10:01:22.217Z,11.23
2022-10-21T10:03:53.782Z,13.73
2022-10-21T10:06:41.571Z,19.20
2022-10-21T10:09:17.038Z,13.03
2022-10-21T10:11:54.999Z,15.50
2022-10-21T10:14:33.621Z,13.47
2022-10-21T10:17:25.560Z,12.57
2022-10-21T10:20:20.082Z,11.70
2022-10-21T10:23:09.778Z,11.90
2022-10-21T10:25:40.979Z,14.23
2022-10-21T10:28:26.059Z,15.80
2022-10-21T10:30:57.991Z,12.90
2022-10-21T10:33:30.762Z,13.10
2022-10-21T10:36:03.361Z,11.43
2022-10-21T10:38:36.345Z,19.90
2022-10-21T10:41:07.764Z,13.63
2022-10-21T10:43:42.831Z,12.87
2022-10-21T10:46:23.307Z,14.13
2022-10-21T10:48:55.542Z,14.77
2022-10-21T10:51:29.952Z,14.13
2022-10-21T10:54:16.400Z,13.73
2022-10-21T10:56:51.725Z,11.50
2022-10-21T10:59:31.862Z,14.90
2022-10-21T11:02:14.487Z,13.57
2022-10-21T11:04:55.556Z,13.20
2022-10-21T11:07:30.409Z,12.23
2022-10-21T11:10:04.295Z,12.27
2022-10-21T11:12:34.257Z,14.67
2022-10-21T11:15:03.425Z,11.77
2022-10-21T11:17:39.260Z,12.47
2022-10-21T11:20:19.864Z,12.03
2022-10-21T11:22:59.830Z,13.13
2022-10-21T11:25:36.884Z,13.20
2022-10-21T11:28:17.130Z,12.70
2022-10-21T11:31:05.747Z,10.83
2022-10-21T11:33:45.477Z,14.30
2022-10-21T11:36:25.412Z,12.07
2022-10-21T11:39:21.861Z,12.00
2022-10-21T11:41:57.413Z,13.03
2022-10-21T11:44:34.317Z,16.70
2022-10-21T11:47:11.459Z,11.40
2022-10-21T11:49:52.156Z,14.27
2022-10-21T11:52:39.021Z,14.93
2022-10-21T11:55:40.358Z,17.20
2022-10-21T11:58:25.031Z,10.17
2022-10-21T12:01:02.615Z,11.73
2022-10-21T12:03:53.649Z,23.53
2022-10-21T12:06:34.354Z,13.50
2022-10-21T12:09:08.249Z,14.30
2022-10-21T12:11:45.135Z,12.67
2022-10-21T12:14:31.120Z,13.37
2022-10-21T12:17:06.667Z,19.00
2022-10-21T12:19:36.756Z,20.90
2022-10-21T12:22:06.129Z,12.77
2022-10-21T12:24:48.907Z,11.87
2022-10-21T12:27:27.067Z,12.93
2022-10-21T12:30:13.029Z,10.60
2022-10-21T12:32:49.527Z,10.93
2022-10-21T12:35:26.377Z,12.30
2022-10-21T12:38:21.392Z,18.17
2022-10-21T12:40:52.757Z,11.67
2022-10-21T12:43:28.909Z,12.77
2022-10-21T12:46:07.286Z,12.10
2022-10-21T12:48:41.035Z,12.47
2022-10-21T12:51:20.008Z,13.00
2022-10-21T12:56:34.772Z,14.23
2022-10-21T12:59:06.336Z,16.93
2022-10-21T13:01:39.975Z,18.97
2022-10-21T13:04:50.723Z,11.60
2022-10-21T13:08:04.283Z,12.80
2022-10-21T13:10:33.321Z,12.10
2022-10-21T13:13:29.437Z,9.93
2022-10-21T13:15:58.821Z,13.47
2022-10-21T13:18:55.424Z,12.97
2022-10-21T13:21:42.393Z,11.00
2022-10-21T13:24:26.255Z,9.97
2022-10-21T13:26:57.518Z,10.40
2022-10-21T13:29:48.484Z,13.97
2022-10-21T13:32:29.740Z,10.90
2022-10-21T13:35:03.832Z,15.47
2022-10-21T13:37:37.374Z,16.13
2022-10-21T13:40:10.280Z,15.10
2022-10-21T13:42:42.910Z,17.67
2022-10-21T13:45:25.782Z,10.23
2022-10-21T13:48:06.828Z,12.80
2022-10-21T13:50:40.460Z,12.93
2022-10-21T13:53:36.417Z,13.63
2022-10-21T13:56:08.725Z,10.13
2022-10-21T13:58:40.176Z,11.83
2022-10-21T14:01:11.333Z,12.13
2022-10-21T14:03:42.200Z,13.80
2022-10-21T14:06:16.494Z,10.77
2022-10-21T14:08:49.217Z,17.33
2022-10-21T14:11:24.280Z,10.23
2022-10-21T14:13:53.649Z,13.63
2022-10-21T14:16:30.780Z,11.47
2022-10-21T14:19:01.061Z,14.50
2022-10-21T14:21:33.264Z,13.03
2022-10-21T14:24:05.147Z,11.50
2022-10-21T14:26:35.036Z,22.37
2022-10-21T14:29:06.382Z,12.23
2022-10-21T14:31:35.507Z,14.53
2022-10-21T14:34:07.299Z,12.20
2022-10-21T14:36:36.365Z,14.23
2022-10-21T14:39:20.668Z,13.17
2022-10-21T14:41:49.955Z,13.63
2022-10-21T14:44:23.449Z,16.20
2022-10-21T14:46:54.246Z,12.70
2022-10-21T14:49:26.052Z,12.67
2022-10-21T14:52:01.396Z,14.33
2022-10-21T14:54:40.829Z,16.97
2022-10-21T14:57:25.169Z,12.60
2022-10-21T14:59:54.679Z,12.43
2022-10-21T15:02:28.260Z,11.63
2022-10-21T15:04:59.453Z,13.03
2022-10-21T15:07:31.513Z,14.23
2022-10-21T15:10:17.101Z,13.73
2022-10-21T15:12:47.388Z,13.53
2022-10-21T15:15:48.372Z,17.07
2022-10-21T15:18:29.513Z,17.03
2022-10-21T15:21:01.506Z,15.20
2022-10-21T15:23:36.172Z,15.23
2022-10-21T15:26:12.324Z,13.97
2022-10-21T15:28:42.031Z,14.57
2022-10-21T15:31:17.350Z,12.87
2022-10-21T15:33:46.919Z,12.30
2022-10-21T15:36:16.250Z,10.57
2022-10-21T15:38:46.934Z,12.97
2022-10-21T15:41:19.232Z,11.73
2022-10-21T15:43:59.885Z,18.93
2022-10-21T15:46:30.230Z,12.83
2022-10-21T15:49:01.939Z,16.63
2022-10-21T15:51:31.044Z,11.37
2022-10-21T15:54:00.168Z,14.23
2022-10-21T15:56:30.739Z,26.33
2022-10-21T15:58:59.760Z,18.83
2022-10-21T16:01:29.193Z,12.73
2022-10-21T16:03:58.344Z,16.93
2022-10-21T16:06:27.448Z,14.00
2022-10-21T16:08:56.526Z,19.13
2022-10-21T16:11:34.986Z,16.33
2022-10-21T16:14:14.537Z,15.83
2022-10-21T16:16:46.976Z,17.50
2022-10-21T16:19:17.173Z,13.53
2022-10-21T16:21:46.941Z,13.50
2022-10-21T16:24:15.996Z,11.67
2022-10-21T16:26:48.216Z,14.50
2022-10-21T16:29:21.564Z,14.90
2022-10-21T16:31:50.769Z,15.00
2022-10-21T16:34:20.540Z,16.80
2022-10-21T16:36:49.616Z,13.60
2022-10-21T16:39:20.541Z,13.37
2022-10-21T16:41:49.838Z,14.10
2022-10-21T16:44:20.754Z,14.30
2022-10-21T16:46:53.289Z,17.93
2022-10-21T16:49:24.392Z,16.87
2022-10-21T16:51:53.980Z,23.80
2022-10-21T16:54:24.781Z,13.77
2022-10-21T16:56:57.072Z,14.87
2022-10-21T16:59:27.583Z,18.60
2022-10-21T17:01:58.073Z,14.40
2022-10-21T17:04:27.156Z,14.33
2022-10-21T17:06:58.652Z,15.63
2022-10-21T17:09:29.769Z,16.27
2022-10-21T17:11:58.776Z,16.60
2022-10-21T17:14:29.373Z,10.90
2022-10-21T17:16:58.427Z,15.00
2022-10-21T17:19:27.525Z,13.20
2022-10-21T17:21:57.266Z,21.60
2022-10-21T17:24:27.920Z,17.30
2022-10-21T17:26:57.633Z,14.10
2022-10-21T17:29:26.637Z,17.60
2022-10-21T17:31:57.086Z,19.93
2022-10-21T17:34:29.567Z,18.70
2022-10-21T17:36:59.134Z,17.40
2022-10-21T17:39:52.921Z,20.93
2022-10-21T17:42:22.071Z,15.00
2022-10-21T17:44:52.788Z,15.13
2022-10-21T17:47:23.276Z,21.20
2022-10-21T17:49:52.344Z,19.80
2022-10-21T17:52:24.003Z,18.07
2022-10-21T17:54:53.065Z,22.53
2022-10-21T17:57:23.445Z,19.03
2022-10-21T17:59:53.654Z,21.13
2022-10-21T18:02:24.820Z,20.83
2022-10-21T18:04:54.053Z,22.07
2022-10-21T18:07:23.265Z,20.63
2022-10-21T18:09:52.334Z,19.13
2022-10-21T18:12:21.555Z,18.20
2022-10-21T18:14:51.707Z,23.70
2022-10-21T18:17:21.012Z,20.40
2022-10-21T18:19:52.672Z,20.53
2022-10-21T18:22:22.309Z,18.13
2022-10-21T18:24:51.537Z,20.10
2022-10-21T18:27:20.752Z,18.60
2022-10-21T18:29:49.719Z,22.97
2022-10-21T18:32:18.999Z,22.60
2022-10-21T18:34:48.015Z,22.23
2022-10-21T18:37:18.448Z,22.83
2022-10-21T18:39:47.500Z,21.70
2022-10-21T18:42:16.580Z,23.53
2022-10-21T18:44:45.815Z,21.03
2022-10-21T18:47:14.892Z,22.77
2022-10-21T18:49:43.847Z,16.43
2022-10-21T18:52:13.346Z,16.03
2022-10-21T18:54:43.758Z,16.00
2022-10-21T18:57:13.036Z,17.03
2022-10-21T18:59:42.154Z,20.67
2022-10-21T19:02:18.757Z,18.90
2022-10-21T19:04:47.972Z,17.10
2022-10-21T19:07:17.990Z,24.77
2022-10-21T19:09:48.456Z,21.80
2022-10-21T19:12:22.414Z,15.77
2022-10-21T19:14:52.465Z,29.03
2022-10-21T19:17:21.627Z,17.37
2022-10-21T19:19:51.746Z,20.40
2022-10-21T19:22:23.546Z,20.30
2022-10-21T19:24:54.048Z,21.47
2022-10-21T19:27:23.422Z,17.50
2022-10-21T19:29:52.471Z,22.53
2022-10-21T19:32:21.525Z,24.17
2022-10-21T19:34:50.576Z,24.50
2022-10-21T19:37:19.703Z,20.23
2022-10-21T19:39:48.735Z,20.30
2022-10-21T19:42:19.035Z,21.00
2022-10-21T19:44:48.111Z,27.17
2022-10-21T19:47:17.066Z,21.80
2022-10-21T19:49:46.140Z,18.57
2022-10-21T19:52:15.172Z,18.23
2022-10-21T19:54:44.302Z,18.03
2022-10-21T19:57:13.556Z,19.87
2022-10-21T19:59:44.240Z,24.93
2022-10-21T20:02:13.704Z,24.30
2022-10-21T20:04:42.694Z,22.07
2022-10-21T20:07:11.840Z,18.60
2022-10-21T20:09:43.819Z,19.13
2022-10-21T20:12:12.929Z,15.80
2022-10-21T20:14:43.606Z,17.00
2022-10-21T20:17:16.197Z,21.33
2022-10-21T20:19:49.220Z,20.00
2022-10-21T20:22:18.528Z,21.43
2022-10-21T20:24:47.796Z,20.73
2022-10-21T20:27:16.775Z,20.47
2022-10-21T20:29:47.313Z,18.57
2022-10-21T20:32:16.361Z,21.47
2022-10-21T20:34:47.097Z,19.70
2022-10-21T20:37:16.036Z,21.50
2022-10-21T20:39:45.142Z,20.40
2022-10-21T20:42:14.205Z,22.57
2022-10-21T20:44:43.233Z,26.30
2022-10-21T20:47:13.700Z,20.87
2022-10-21T20:49:42.699Z,19.53
2022-10-21T20:52:12.352Z,23.60
2022-10-21T20:54:41.360Z,22.73
2022-10-21T20:57:10.641Z,21.03
2022-10-21T20:59:39.679Z,19.53
2022-10-21T21:02:10.197Z,25.03
2022-10-21T21:04:40.687Z,24.63
2022-10-21T21:07:09.820Z,26.50
2022-10-21T21:12:29.376Z,24.77
2022-10-21T21:14:58.349Z,23.80
2022-10-21T21:17:27.627Z,25.70
2022-10-21T21:19:58.049Z,22.60
2022-10-21T21:22:27.167Z,22.43
2022-10-21T21:24:56.388Z,26.30
2022-10-21T21:27:25.850Z,26.00
2022-10-21T21:29:55.330Z,24.73
2022-10-21T21:32:25.051Z,22.17
2022-10-21T21:34:55.466Z,24.47
2022-10-21T21:37:26.971Z,21.50
2022-10-21T21:39:55.944Z,25.47
2022-10-21T21:42:25.028Z,22.27
2022-10-21T21:44:54.154Z,22.53
2022-10-21T21:47:23.216Z,21.43
2022-10-21T21:49:52.220Z,22.80
2022-10-21T21:52:21.614Z,20.90
2022-10-21T21:54:55.648Z,28.13
2022-10-21T21:57:28.437Z,26.27
2022-10-21T21:59:57.804Z,21.83
2022-10-21T22:02:26.852Z,21.53
2022-10-21T22:04:55.862Z,24.47
2022-10-21T22:07:24.779Z,20.43
2022-10-21T22:09:58.685Z,21.30
2022-10-21T22:12:27.809Z,25.60
2022-10-21T22:14:56.888Z,23.43
2022-10-21T22:17:25.899Z,25.43
2022-10-21T22:19:54.964Z,20.37
2022-10-21T22:22:24.035Z,22.60
2022-10-21T22:24:53.054Z,21.87
2022-10-21T22:27:23.408Z,27.70
2022-10-21T22:29:52.602Z,20.43
2022-10-21T22:32:21.706Z,23.60
2022-10-21T22:34:50.775Z,22.10
2022-10-21T22:37:20.053Z,22.77
2022-10-21T22:39:49.205Z,25.27
2022-10-21T22:42:18.277Z,24.30
2022-10-21T22:44:48.696Z,24.10
2022-10-21T22:47:18.453Z,21.50
2022-10-21T22:49:47.544Z,24.70
2022-10-21T22:52:16.649Z,23.83
2022-10-21T22:54:49.443Z,23.93
2022-10-21T22:57:18.941Z,18.80
2022-10-21T22:59:53.026Z,20.73
2022-10-21T23:02:22.416Z,20.63
2022-10-21T23:04:51.525Z,21.07
2022-10-21T23:07:20.614Z,20.20
2022-10-21T23:09:51.441Z,18.80
2022-10-21T23:12:20.462Z,18.73
2022-10-21T23:14:50.899Z,25.67
2022-10-21T23:17:20.290Z,20.03
2022-10-21T23:19:49.445Z,17.87
2022-10-21T23:22:18.759Z,21.43
2022-10-21T23:24:48.095Z,19.30
2022-10-21T23:27:17.091Z,17.10
2022-10-21T23:29:46.041Z,36.50
2022-10-21T23:32:16.613Z,18.30
2022-10-21T23:34:45.716Z,27.33
2022-10-21T23:37:14.849Z,21.13
2022-10-21T23:39:43.990Z,20.77
2022-10-21T23:42:12.996Z,17.40
2022-10-21T23:44:42.034Z,21.03
2022-10-21T23:47:11.063Z,18.57
2022-10-21T23:49:41.557Z,15.20
2022-10-21T23:52:10.585Z,16.10
2022-10-21T23:54:39.575Z,18.30
2022-10-21T23:57:08.677Z,19.43
2022-10-21T23:59:37.715Z,14.57
